• Join FlightAware (Why Join?)
  • Login
  • US Flag 
03:19AM EDT


 

Airport Tracker/Info


-or-


 

Live Flight TrackerFlight Track Log ✈ JA-807A ✈ 06-Jun-2012 ✈ RJTT / HND - RJOM / MYJ

Flight Track Log - Related Links

Times and Time Zones

All times are in EDT time to prevent confusion due to time zone crossing. See the JA-807A flight status page for this flight to view local times or setup timezone preferences in your user account.

Time Position Orientation Groundspeed Altitude Reporting Facility
EDT Latitude Longitude Course Direction KTS MPH feet Rate Location/Type
11:30PM 35.5152 139.6039 255° West  Level Estimated
11:31PM 35.4909 139.4893 255° West  Level Estimated
11:32PM 35.4665 139.3748 255° West  Level Estimated
11:33PM 35.4420 139.2604 255° West  Level Estimated
11:34PM 35.4173 139.1460 255° West  Level Estimated
11:35PM 35.3926 139.0317 255° West  Level Estimated
11:36PM 35.3678 138.9175 255° West  Level Estimated
11:37PM 35.3428 138.8033 255° West  Level Estimated
11:38PM 35.3178 138.6893 255° West  Level Estimated
11:39PM 35.2926 138.5752 255° West  Level Estimated
11:40PM 35.2673 138.4613 255° West  Level Estimated
11:41PM 35.2420 138.3474 255° West  Level Estimated
11:42PM 35.2165 138.2336 255° West  Level Estimated
11:43PM 35.1909 138.1199 255° West  Level Estimated
11:44PM 35.1652 138.0063 255° West  Level Estimated
11:45PM 35.1394 137.8927 254° West  Level Estimated
11:46PM 35.1135 137.7792 254° West  Level Estimated
11:47PM 35.0874 137.6657 254° West  Level Estimated
11:48PM 35.0613 137.5524 254° West  Level Estimated
11:49PM 35.0351 137.4391 254° West  Level Estimated
11:50PM 35.0088 137.3259 254° West  Level Estimated
11:51PM 34.9823 137.2127 254° West  Level Estimated
11:52PM 34.9558 137.0997 254° West  Level Estimated
11:53PM 34.9291 136.9867 254° West  Level Estimated
11:54PM 34.9024 136.8737 254° West  Level Estimated
11:55PM 34.8755 136.7609 254° West  Level Estimated
11:56PM 34.8486 136.6481 254° West  Level Estimated
11:57PM 34.8215 136.5354 254° West  Level Estimated
11:58PM 34.7944 136.4228 254° West  Level Estimated
11:59PM 34.7671 136.3102 254° West  Level Estimated
12:00AM 34.7397 136.1978 253° West  Level Estimated
12:01AM 34.7122 136.0853 253° West  Level Estimated
12:02AM 34.6847 135.9730 253° West  Level Estimated
12:03AM 34.6570 135.8607 253° West  Level Estimated
12:04AM 34.6292 135.7486 253° West  Level Estimated
12:05AM 34.6013 135.6365 253° West  Level Estimated
12:06AM 34.5733 135.5244 253° West  Level Estimated
12:07AM 34.5452 135.4125 253° West  Level Estimated
12:08AM 34.5170 135.3006 253° West  Level Estimated
12:09AM 34.4887 135.1888 253° West  Level Estimated
12:10AM 34.4603 135.0771 253° West  Level Estimated
12:11AM 34.4318 134.9654 253° West  Level Estimated
12:12AM 34.4032 134.8539 253° West  Level Estimated
12:13AM 34.3745 134.7424 253° West  Level Estimated
12:14AM 34.3457 134.6309 253° West  Level Estimated
12:15AM 34.3168 134.5196 253° West  Level Estimated
12:16AM 34.2878 134.4083 252° West  Level Estimated
12:17AM 34.2587 134.2971 252° West  Level Estimated
12:18AM 34.2295 134.1860 252° West  Level Estimated
12:19AM 34.2002 134.0750 252° West  Level Estimated
12:20AM 34.1708 133.9640 252° West  Level Estimated
12:21AM 34.1413 133.8531 252° West  Level Estimated
12:22AM 34.1117 133.7423 252° West  Level Estimated
12:23AM 34.0820 133.6316 252° West  Level Estimated
12:24AM 34.0522 133.5210 252° West  Level Estimated
12:25AM 34.0223 133.4104 252° West  Level Estimated
12:26AM 33.9923 133.2999 252° West  Level Estimated
12:27AM 33.9622 133.1895 252° West  Level Estimated
12:28AM 33.9320 133.0791 252° West  Level Estimated
12:29AM 33.9017 132.9689 252° West  Level Estimated
12:30AM 33.8713 132.8587 252° West  Level Estimated
12:31AM 33.8408 132.7486 252° West  Level Estimated
12:32AM 33.8102 132.6386 71° East  Level Estimated
12:33AM 33.8408 132.7486 252° West  Level Estimated
12:34AM 33.8102 132.6386 71° East  Level Estimated
12:35AM 33.8408 132.7486 252° West  Level Estimated
12:36AM 33.8102 132.6386 71° East  Level Estimated
12:37AM 33.8408 132.7486 252° West  Level Estimated
12:38AM 33.8102 132.6386 71° East  Level Estimated
12:39AM 33.8408 132.7486 252° West  Level Estimated
12:40AM 33.8102 132.6386 71° East  Level Estimated
12:41AM 33.8408 132.7486 252° West  Level Estimated
12:42AM 33.8102 132.6386 71° East  Level Estimated
12:43AM 33.8408 132.7486 252° West  Level Estimated
12:44AM 33.8102 132.6386 71° East  Level Estimated
12:45AM 33.8408 132.7486 252° West  Level Estimated
12:46AM 33.8102 132.6386 71° East  Level Estimated
12:47AM 33.8408 132.7486 71° East  Level Estimated